Time;durP1;ratioP1;P1;durP2;ratioP2;P2;SDS_P1;SDS_P2;PMS_P1;PMS_P2;Temp;Humidity;BMP_temperature;BMP_pressure;BME280_temperature;BME280_humidity;BME280_pressure;Samples;Min_cycle;Max_cycle;Signal;HPM_P1;HPM_P2
2021/09/14 00:02:19;;;;;;;0.10;0.10;;;;;;;14.64;81.57;98623.13;5040931;28;20142;-67
2021/09/14 00:04:45;;;;;;;0.20;0.20;;;;;;;14.63;80.75;98624.19;5075007;28;20043;-67
2021/09/14 00:07:11;;;;;;;0.10;0.10;;;;;;;14.64;79.58;98642.19;5057970;28;20055;-67
2021/09/14 00:09:37;;;;;;;0.10;0.10;;;;;;;14.53;78.65;98640.03;5057563;28;20052;-66
2021/09/14 00:12:04;;;;;;;0.10;0.10;;;;;;;14.50;78.32;98640.44;5057606;28;20119;-67
2021/09/14 00:14:30;;;;;;;0.10;0.10;;;;;;;14.52;77.93;98640.25;5073998;28;20161;-65
2021/09/14 00:16:56;;;;;;;0.10;0.10;;;;;;;14.59;76.36;98644.69;5073806;28;20151;-67
2021/09/14 00:19:21;;;;;;;0.20;0.20;;;;;;;14.58;76.32;98645.69;5091711;28;20471;-68
2021/09/14 00:21:47;;;;;;;0.10;0.10;;;;;;;14.54;75.40;98636.25;5073886;28;20442;-68
2021/09/14 00:24:13;;;;;;;0.10;0.10;;;;;;;14.55;74.97;98643.38;5092284;28;20064;-66
2021/09/14 00:26:39;;;;;;;0.20;0.20;;;;;;;14.46;75.90;98644.56;5074020;28;20054;-66
2021/09/14 00:29:06;;;;;;;0.20;0.20;;;;;;;14.37;75.60;98633.03;5074016;28;20071;-67
2021/09/14 00:31:32;;;;;;;0.10;0.10;;;;;;;14.37;75.39;98630.31;5057219;28;20060;-67
2021/09/14 00:34:02;;;;;;;0.20;0.20;;;;;;;14.35;75.88;98656.00;5091949;28;20142;-65
2021/09/14 00:36:28;;;;;;;0.20;0.20;;;;;;;14.41;75.35;98649.78;5040185;28;20148;-66
2021/09/14 00:38:53;;;;;;;0.10;0.10;;;;;;;14.44;75.43;98662.94;5091615;28;20060;-67
2021/09/14 00:41:19;;;;;;;0.20;0.20;;;;;;;14.52;75.79;98671.00;5091948;28;20044;-67
2021/09/14 00:43:59;;;;;;;0.15;0.15;;;;;;;14.51;75.78;98671.19;5091971;28;20052;-65
2021/09/14 00:46:24;;;;;;;0.20;0.20;;;;;;;14.55;75.63;98673.28;5073580;28;20058;-67
2021/09/14 00:48:50;;;;;;;0.13;0.13;;;;;;;14.51;75.90;98677.47;5092909;28;20060;-66
2021/09/14 00:51:17;;;;;;;0.20;0.20;;;;;;;14.48;75.82;98675.13;5092830;28;20700;-67
2021/09/14 00:53:42;;;;;;;0.20;0.20;;;;;;;14.46;75.33;98688.06;5058002;28;20763;-67
2021/09/14 00:56:08;;;;;;;0.20;0.20;;;;;;;14.38;74.90;98691.78;5091840;28;20201;-66
2021/09/14 00:58:34;;;;;;;0.17;0.17;;;;;;;14.37;74.95;98692.84;5092248;28;20431;-67
2021/09/14 01:01:00;;;;;;;0.20;0.20;;;;;;;14.24;72.69;98690.88;5074647;28;20150;-65
2021/09/14 01:03:26;;;;;;;0.20;0.20;;;;;;;14.16;68.09;98692.91;5074431;28;20129;-67
2021/09/14 01:05:51;;;;;;;0.10;0.10;;;;;;;14.15;64.89;98692.06;5092192;28;20059;-67
2021/09/14 01:08:19;;;;;;;0.15;0.15;;;;;;;14.14;64.26;98694.97;5092616;28;20079;-66
2021/09/14 01:10:44;;;;;;;0.10;0.10;;;;;;;14.14;62.99;98701.22;5074181;28;20499;-68
2021/09/14 01:13:10;;;;;;;0.15;0.15;;;;;;;14.03;62.53;98698.22;5091289;28;20055;-67
2021/09/14 01:15:37;;;;;;;0.20;0.20;;;;;;;13.97;60.46;98710.75;5056953;28;20117;-67
2021/09/14 01:18:04;;;;;;;0.10;0.10;;;;;;;13.89;59.90;98719.00;5040793;28;20527;-66
2021/09/14 01:20:31;;;;;;;0.20;0.20;;;;;;;13.79;59.61;98718.50;5057751;28;20048;-66
2021/09/14 01:22:56;;;;;;;0.20;0.20;;;;;;;13.71;59.95;98714.91;5074416;28;20112;-76
2021/09/14 01:25:24;;;;;;;0.20;0.20;;;;;;;13.63;59.88;98728.59;5074159;28;20064;-67
2021/09/14 01:28:02;;;;;;;0.20;0.20;;;;;;;13.59;60.01;98727.28;5073185;28;20159;-67
2021/09/14 01:30:32;;;;;;;0.10;0.10;;;;;;;13.55;60.80;98726.00;5057253;28;20107;-66
2021/09/14 01:32:59;;;;;;;0.20;0.20;;;;;;;13.36;61.00;98726.63;5038498;28;20060;-67
2021/09/14 01:35:31;;;;;;;0.20;0.20;;;;;;;13.22;60.36;98717.47;5056677;28;20052;-66
2021/09/14 01:37:59;;;;;;;0.20;0.20;;;;;;;13.15;60.47;98733.66;5056493;28;20083;-69
2021/09/14 01:40:28;;;;;;;0.10;0.10;;;;;;;13.06;60.65;98740.25;5072749;28;20082;-68
2021/09/14 01:43:04;;;;;;;0.10;0.10;;;;;;;12.93;61.02;98740.06;5052634;28;20059;-67
2021/09/14 01:45:31;;;;;;;0.20;0.20;;;;;;;12.83;61.39;98747.63;5036719;28;20053;-67
2021/09/14 01:47:58;;;;;;;0.20;0.20;;;;;;;12.77;61.09;98750.09;5052216;28;20107;-68
2021/09/14 01:50:24;;;;;;;0.20;0.20;;;;;;;12.68;61.20;98747.66;5036152;28;20060;-66
2021/09/14 01:52:50;;;;;;;0.20;0.20;;;;;;;12.53;60.86;98753.06;5071574;28;20092;-66
2021/09/14 01:55:19;;;;;;;0.20;0.20;;;;;;;12.44;60.70;98751.47;5075508;28;20162;-65
2021/09/14 01:57:48;;;;;;;0.20;0.20;;;;;;;12.40;60.80;98744.75;5075433;28;20043;-67
2021/09/14 02:00:23;;;;;;;0.20;0.20;;;;;;;12.21;61.38;98746.97;5059041;28;20059;-67
2021/09/14 02:58:38;;;;;;;0.20;0.20;;;;;;;11.09;64.44;98783.59;5088680;28;20497;-68
2021/09/14 02:59:46;;;;;;;0.20;0.20;;;;;;;11.09;64.04;98779.00;5057737;28;20055;-67
2021/09/14 03:02:12;;;;;;;0.20;0.20;;;;;;;11.10;63.74;98785.25;5070916;28;20147;-68
2021/09/14 03:04:38;;;;;;;0.20;0.20;;;;;;;11.08;63.24;98782.75;5088646;28;20063;-67
2021/09/14 03:07:04;;;;;;;0.20;0.20;;;;;;;11.17;63.33;98780.84;5071209;28;20060;-66
2021/09/14 03:09:34;;;;;;;0.20;0.20;;;;;;;11.20;62.98;98790.47;5039359;28;20075;-69
2021/09/14 03:12:00;;;;;;;0.20;0.20;;;;;;;11.19;62.69;98784.22;5071083;28;20143;-67
2021/09/14 03:14:29;;;;;;;0.20;0.20;;;;;;;11.21;62.36;98784.88;5054525;28;20055;-68
2021/09/14 03:16:56;;;;;;;0.20;0.20;;;;;;;11.24;62.29;98787.22;5054000;28;20456;-68
2021/09/14 03:19:22;;;;;;;0.20;0.20;;;;;;;11.27;62.35;98781.47;5054557;28;20063;-70
2021/09/14 03:21:48;;;;;;;0.20;0.20;;;;;;;11.27;62.19;98786.03;5071984;28;20063;-68
2021/09/14 03:24:14;;;;;;;0.20;0.20;;;;;;;11.31;62.16;98793.63;5054862;28;20060;-68
2021/09/14 03:26:40;;;;;;;0.20;0.20;;;;;;;11.29;62.12;98790.22;5071690;28;20052;-69
2021/09/14 03:29:07;;;;;;;0.20;0.20;;;;;;;11.41;61.57;98792.53;5054850;28;20048;-69
2021/09/14 03:31:40;;;;;;;0.30;0.30;;;;;;;11.60;60.95;98792.09;5038799;28;20078;-67
2021/09/14 03:34:07;;;;;;;0.20;0.20;;;;;;;11.67;60.77;98798.50;5089261;28;20495;-67
2021/09/14 03:36:33;;;;;;;0.20;0.20;;;;;;;11.57;60.97;98803.28;5073857;28;20142;-67
2021/09/14 03:38:59;;;;;;;0.20;0.20;;;;;;;11.58;60.88;98804.97;5058328;28;20075;-69
2021/09/14 03:41:24;;;;;;;0.20;0.20;;;;;;;11.42;62.08;98807.78;5072365;28;20547;-68
2021/09/14 03:43:51;;;;;;;0.20;0.20;;;;;;;11.42;61.53;98810.47;5057295;28;20154;-67
2021/09/14 03:46:16;;;;;;;0.20;0.20;;;;;;;11.46;61.63;98811.81;5056992;28;20060;-68
2021/09/14 03:48:43;;;;;;;0.30;0.30;;;;;;;11.39;61.59;98816.25;5057006;28;20135;-70
2021/09/14 03:51:10;;;;;;;0.20;0.20;;;;;;;11.45;61.71;98820.97;5056502;28;20056;-72
2021/09/14 03:53:36;;;;;;;0.20;0.20;;;;;;;11.42;61.43;98816.72;5039733;28;20518;-72
2021/09/14 03:56:01;;;;;;;0.20;0.20;;;;;;;11.49;60.79;98819.56;5056292;28;20625;-73
2021/09/14 03:58:32;;;;;;;0.20;0.20;;;;;;;11.53;61.35;98829.88;5040547;28;20125;-71
2021/09/14 04:00:58;;;;;;;0.20;0.20;;;;;;;11.55;62.16;98826.97;5041128;28;20144;-77
2021/09/14 04:06:34;;;;;;;0.20;0.20;;;;;;;11.51;63.34;98825.63;5032981;28;20060;-75
2021/09/14 04:09:00;;;;;;;0.20;0.20;;;;;;;11.54;63.44;98830.69;5046973;28;20047;-76
2021/09/14 04:11:32;;;;;;;0.20;0.20;;;;;;;11.49;63.60;98836.66;5054366;28;20060;-73
2021/09/14 04:13:59;;;;;;;0.20;0.20;;;;;;;11.50;64.13;98840.19;5028676;28;20047;-75
2021/09/14 04:16:25;;;;;;;0.20;0.20;;;;;;;11.55;63.99;98837.78;5052264;28;20052;-71
2021/09/14 04:18:51;;;;;;;0.20;0.20;;;;;;;11.60;63.73;98843.53;5055594;28;20127;-74
2021/09/14 04:21:18;;;;;;;0.20;0.20;;;;;;;11.58;63.48;98848.28;5046703;28;20044;-74
2021/09/14 04:23:44;;;;;;;0.20;0.20;;;;;;;11.53;63.57;98845.28;5056890;28;20051;-71
2021/09/14 04:26:10;;;;;;;0.30;0.30;;;;;;;11.46;64.18;98839.72;5063634;28;20088;-74
2021/09/14 04:28:36;;;;;;;0.20;0.20;;;;;;;11.50;64.27;98851.03;5071124;28;20098;-72
2021/09/14 04:31:02;;;;;;;0.20;0.20;;;;;;;11.63;63.40;98861.25;5054112;28;20052;-75
2021/09/14 04:33:30;;;;;;;0.20;0.20;;;;;;;11.67;62.41;98851.81;5036848;28;20068;-71
2021/09/14 04:35:56;;;;;;;0.20;0.20;;;;;;;11.70;62.26;98855.00;5055282;28;20449;-69
2021/09/14 04:38:27;;;;;;;0.20;0.20;;;;;;;11.78;61.25;98854.94;5054162;28;20508;-71
2021/09/14 04:40:53;;;;;;;0.20;0.20;;;;;;;11.85;61.61;98854.22;5070988;28;20530;-71
2021/09/14 04:43:19;;;;;;;0.30;0.30;;;;;;;11.79;60.93;98862.03;5038260;28;20052;-70
2021/09/14 04:45:45;;;;;;;0.28;0.28;;;;;;;11.82;61.06;98853.56;5071080;28;20060;-69
2021/09/14 04:48:11;;;;;;;0.30;0.30;;;;;;;11.91;60.64;98848.09;5052898;28;20528;-70
2021/09/14 04:50:38;;;;;;;0.30;0.30;;;;;;;11.98;61.50;98855.34;5054328;28;20127;-71
2021/09/14 04:53:06;;;;;;;0.30;0.30;;;;;;;12.18;61.50;98858.44;5054345;28;20052;-73
2021/09/14 04:55:33;;;;;;;0.30;0.30;;;;;;;12.27;60.99;98853.78;5039730;28;20120;-70
2021/09/14 04:58:00;;;;;;;0.30;0.30;;;;;;;12.55;60.26;98856.75;5073169;28;20079;-75
2021/09/14 05:00:26;;;;;;;0.30;0.30;;;;;;;12.72;59.69;98863.72;5072154;28;20131;-71
2021/09/14 05:02:54;;;;;;;0.30;0.30;;;;;;;12.76;59.25;98859.63;5072831;28;20139;-73
2021/09/14 05:05:22;;;;;;;0.30;0.30;;;;;;;12.76;59.17;98867.75;5055902;28;20101;-72
2021/09/14 05:07:48;;;;;;;0.30;0.30;;;;;;;12.79;59.21;98870.06;5056365;28;20045;-70
2021/09/14 05:10:15;;;;;;;0.30;0.30;;;;;;;12.84;58.62;98872.25;5050716;28;20057;-73
2021/09/14 05:12:47;;;;;;;0.30;0.30;;;;;;;12.67;58.91;98866.13;5050634;28;20099;-76
2021/09/14 05:15:13;;;;;;;0.30;0.30;;;;;;;12.87;58.09;98871.00;5050835;28;20044;-70
2021/09/14 05:17:57;;;;;;;0.30;0.30;;;;;;;12.76;58.65;98870.47;5050459;28;20152;-72
2021/09/14 05:20:32;;;;;;;0.30;0.30;;;;;;;12.59;59.77;98876.22;5035031;28;20049;-74
2021/09/14 05:23:10;;;;;;;0.30;0.30;;;;;;;12.66;59.91;98875.28;5001024;28;20060;-72
2021/09/14 05:25:36;;;;;;;0.40;0.40;;;;;;;13.08;59.14;98878.44;5050731;28;20060;-73
2021/09/14 05:28:02;;;;;;;0.40;0.40;;;;;;;13.31;58.70;98871.09;5033473;28;20076;-70
2021/09/14 05:30:28;;;;;;;0.40;0.40;;;;;;;13.67;58.53;98873.81;5066559;28;20480;-72
2021/09/14 05:32:54;;;;;;;0.30;0.30;;;;;;;13.81;58.01;98866.69;5033518;28;20452;-73
2021/09/14 05:35:26;;;;;;;0.30;0.30;;;;;;;14.04;57.22;98868.41;5034586;28;20064;-72
2021/09/14 05:37:54;;;;;;;0.30;0.30;;;;;;;14.14;57.09;98858.88;5034979;28;20098;-75
2021/09/14 05:40:21;;;;;;;0.35;0.35;;;;;;;13.87;57.54;98873.25;5020132;28;20060;-75
2021/09/14 05:42:47;;;;;;;0.40;0.40;;;;;;;13.79;58.07;98865.22;5035360;28;20075;-72
2021/09/14 05:45:14;;;;;;;0.40;0.40;;;;;;;14.13;57.02;98868.09;5051856;28;20132;-73
2021/09/14 05:47:40;;;;;;;0.40;0.40;;;;;;;14.54;56.41;98867.44;5036573;28;20107;-74
2021/09/14 05:50:06;;;;;;;0.50;0.50;;;;;;;14.70;56.28;98861.75;5051836;28;20148;-72
2021/09/14 05:52:33;;;;;;;0.40;0.40;;;;;;;14.77;55.92;98863.66;5035324;28;20076;-74
2021/09/14 05:54:59;;;;;;;0.30;0.30;;;;;;;14.95;55.24;98874.88;5019221;28;20413;-72
2021/09/14 05:57:25;;;;;;;0.40;0.40;;;;;;;14.90;55.13;98870.03;5035534;28;20081;-71
2021/09/14 05:59:51;;;;;;;0.30;0.30;;;;;;;14.69;55.73;98870.94;5070712;28;20423;-71
2021/09/14 06:02:20;;;;;;;0.40;0.40;;;;;;;14.50;56.57;98871.59;5022094;28;20056;-69
2021/09/14 06:04:46;;;;;;;0.50;0.50;;;;;;;15.12;55.50;98868.09;5038062;28;20118;-73
2021/09/14 06:07:12;;;;;;;0.80;0.80;;;;;;;15.84;53.60;98876.88;5054260;28;20052;-73
2021/09/14 06:09:39;;;;;;;0.40;0.40;;;;;;;15.97;53.28;98870.63;5038144;28;20075;-73
2021/09/14 06:12:05;;;;;;;0.30;0.30;;;;;;;15.77;53.49;98881.47;5054514;28;20419;-73
2021/09/14 06:14:32;;;;;;;0.40;0.40;;;;;;;15.69;54.43;98877.03;5054985;28;20063;-72
2021/09/14 06:16:59;;;;;;;0.40;0.40;;;;;;;15.14;55.88;98882.38;5054254;28;20090;-71
2021/09/14 06:19:28;;;;;;;0.32;0.32;;;;;;;14.99;56.33;98880.78;5054218;28;20044;-71
2021/09/14 06:21:54;;;;;;;0.40;0.40;;;;;;;15.00;57.29;98869.72;5071900;28;20052;-73
2021/09/14 06:24:21;;;;;;;0.40;0.40;;;;;;;15.41;55.24;98874.34;5053071;28;20067;-72
2021/09/14 06:26:49;;;;;;;0.40;0.40;;;;;;;15.44;55.64;98876.69;5053484;28;20052;-70
2021/09/14 06:29:16;;;;;;;0.80;0.80;;;;;;;16.12;53.52;98888.50;5070338;28;20060;-73
2021/09/14 06:31:43;;;;;;;0.68;0.68;;;;;;;16.99;49.65;98878.50;5054749;28;20080;-73
2021/09/14 06:34:29;;;;;;;0.60;0.60;;;;;;;17.27;48.98;98877.44;5042813;28;20068;-72
2021/09/14 06:36:55;;;;;;;0.50;0.50;;;;;;;17.23;48.63;98881.66;5020529;28;20101;-71
2021/09/14 06:39:22;;;;;;;0.50;0.50;;;;;;;17.14;47.52;98872.81;5053701;28;20095;-72
2021/09/14 06:41:48;;;;;;;0.50;0.50;;;;;;;17.00;48.19;98866.56;5069971;28;20091;-72
2021/09/14 06:44:15;;;;;;;0.50;0.50;;;;;;;17.73;45.85;98854.56;5069807;28;20061;-72
2021/09/14 06:46:52;;;;;;;0.30;0.30;;;;;;;17.98;45.49;98858.25;5054950;28;20052;-71
2021/09/14 06:49:19;;;;;;;0.90;0.90;;;;;;;18.93;42.59;98849.19;5052402;28;20529;-70
2021/09/14 06:51:45;;;;;;;0.28;0.28;;;;;;;18.77;42.37;98867.03;5069016;28;20176;-70
2021/09/14 06:54:11;;;;;;;0.22;0.22;;;;;;;17.91;44.05;98873.88;5069291;28;20197;-71
2021/09/14 06:56:37;;;;;;;0.20;0.20;;;;;;;16.48;46.98;98865.47;5069274;28;20071;-72
2021/09/14 06:59:42;;;;;;;0.20;0.20;;;;;;;16.38;47.93;98862.31;5035917;28;20053;-72
2021/09/14 07:02:11;;;;;;;1.13;1.13;;;;;;;17.96;44.25;98876.81;5053504;28;20068;-73
2021/09/14 07:04:37;;;;;;;0.20;0.20;;;;;;;18.91;41.46;98868.59;5035588;28;20089;-75
2021/09/14 07:07:03;;;;;;;0.20;0.20;;;;;;;17.59;44.13;98873.78;5068654;28;20049;-70
2021/09/14 07:09:29;;;;;;;0.20;0.20;;;;;;;16.59;45.66;98878.50;5051587;28;20056;-69
2021/09/14 07:11:58;;;;;;;0.20;0.20;;;;;;;16.47;45.80;98871.16;5067244;28;20059;-72
2021/09/14 07:14:24;;;;;;;0.40;0.40;;;;;;;16.89;44.72;98861.72;5055290;28;20056;-74
2021/09/14 07:16:50;;;;;;;0.28;0.28;;;;;;;17.04;43.61;98878.75;5038695;28;20514;-70
2021/09/14 07:19:16;;;;;;;0.30;0.30;;;;;;;16.32;45.80;98882.25;5072263;28;20142;-70
2021/09/14 07:21:41;;;;;;;0.20;0.20;;;;;;;16.20;46.29;98875.72;5072172;28;20048;-72
2021/09/14 07:24:07;;;;;;;0.20;0.20;;;;;;;16.18;47.67;98877.81;5055279;28;20518;-72
2021/09/14 07:26:33;;;;;;;0.30;0.30;;;;;;;16.18;47.32;98883.28;5072389;28;20084;-73
2021/09/14 07:28:59;;;;;;;0.50;0.50;;;;;;;16.90;46.15;98873.50;5071858;28;20503;-73
2021/09/14 07:31:29;;;;;;;0.40;0.40;;;;;;;17.36;44.19;98887.06;5055271;28;20056;-72
2021/09/14 07:36:49;;;;;;;0.30;0.30;;;;;;;17.78;41.73;98884.88;5088698;28;20209;-72
2021/09/14 07:39:15;;;;;;;0.30;0.30;;;;;;;17.72;41.97;98896.63;5071744;28;20139;-73
2021/09/14 07:41:43;;;;;;;0.40;0.40;;;;;;;18.25;40.12;98907.38;5055055;28;20087;-73
2021/09/14 07:44:09;;;;;;;0.40;0.40;;;;;;;18.57;39.67;98897.25;5089799;28;20200;-72
2021/09/14 07:46:34;;;;;;;0.65;0.65;;;;;;;18.62;39.07;98902.94;5071411;28;20548;-70
2021/09/14 07:49:00;;;;;;;0.30;0.30;;;;;;;17.96;39.30;98885.00;5055522;28;20384;-73
2021/09/14 07:51:29;;;;;;;0.30;0.30;;;;;;;17.38;40.18;98911.47;5054901;28;20419;-72
2021/09/14 07:53:54;;;;;;;1.20;1.20;;;;;;;18.35;38.37;98899.50;5038693;28;20215;-72
2021/09/14 07:56:20;;;;;;;0.30;0.30;;;;;;;18.33;37.86;98909.00;5089268;28;20147;-70
2021/09/14 07:58:46;;;;;;;1.00;1.00;;;;;;;19.33;37.54;98904.44;5054838;28;20455;-72
2021/09/14 08:01:12;;;;;;;1.00;1.00;;;;;;;19.19;37.18;98895.50;5054921;28;20479;-72
2021/09/14 08:03:38;;;;;;;0.80;0.80;;;;;;;19.92;35.12;98894.72;5054789;28;20460;-71
2021/09/14 08:06:04;;;;;;;0.50;0.50;;;;;;;19.38;36.39;98899.13;5038489;28;20058;-72
2021/09/14 08:08:30;;;;;;;0.63;0.57;;;;;;;19.09;36.86;98903.41;5071377;28;20048;-73
2021/09/14 08:10:56;;;;;;;0.30;0.30;;;;;;;18.77;37.03;98897.16;5089684;28;20056;-72
2021/09/14 08:13:24;;;;;;;0.70;0.70;;;;;;;19.13;36.72;98909.28;5071479;28;20044;-71
2021/09/14 08:15:50;;;;;;;0.40;0.40;;;;;;;19.07;36.99;98908.28;5071139;28;20063;-72
2021/09/14 08:18:16;;;;;;;0.50;0.50;;;;;;;19.30;36.72;98893.91;5055249;28;20526;-70
2021/09/14 08:20:42;;;;;;;0.30;0.30;;;;;;;19.11;35.80;98906.75;5038540;28;20134;-72
2021/09/14 08:23:08;;;;;;;0.40;0.40;;;;;;;18.65;37.01;98901.63;5075460;28;20514;-72
2021/09/14 08:25:34;;;;;;;0.40;0.40;;;;;;;17.92;37.58;98902.91;5058015;28;20062;-72
2021/09/14 08:27:59;;;;;;;0.50;0.50;;;;;;;18.30;36.64;98904.81;5074607;28;20573;-72
2021/09/14 08:30:25;;;;;;;0.40;0.40;;;;;;;18.54;36.38;98904.03;5058139;28;20499;-72
2021/09/14 08:32:51;;;;;;;0.45;0.45;;;;;;;18.55;37.43;98897.50;5057879;28;20079;-73
2021/09/14 08:35:18;;;;;;;0.30;0.30;;;;;;;18.03;36.53;98910.44;5074785;28;20501;-70
2021/09/14 08:37:44;;;;;;;0.30;0.30;;;;;;;17.69;37.35;98902.53;5041239;28;20086;-74
2021/09/14 08:40:10;;;;;;;0.30;0.30;;;;;;;17.40;37.36;98899.25;5041449;28;20075;-72
2021/09/14 08:42:37;;;;;;;0.32;0.32;;;;;;;17.47;37.74;98900.06;5074782;28;20573;-72
2021/09/14 08:45:08;;;;;;;0.30;0.30;;;;;;;17.42;38.14;98908.09;5074254;28;20056;-72
2021/09/14 08:47:36;;;;;;;0.30;0.30;;;;;;;17.47;37.24;98897.34;5093011;28;20143;-73
2021/09/14 08:50:04;;;;;;;0.30;0.30;;;;;;;17.09;37.59;98887.13;5057721;28;20056;-73
2021/09/14 08:52:31;;;;;;;1.00;0.90;;;;;;;16.88;37.73;98879.16;5074563;28;20063;-72
2021/09/14 08:54:57;;;;;;;0.30;0.30;;;;;;;16.77;37.65;98894.28;5092277;28;20048;-71
2021/09/14 08:57:23;;;;;;;0.30;0.30;;;;;;;16.91;37.44;98903.31;5041111;28;20518;-72
2021/09/14 08:59:49;;;;;;;0.30;0.30;;;;;;;16.73;38.17;98903.06;5074004;28;20102;-72
2021/09/14 09:02:20;;;;;;;0.45;0.40;;;;;;;16.37;39.28;98896.09;5041252;28;20059;-72
2021/09/14 09:04:56;;;;;;;0.25;0.25;;;;;;;15.80;39.92;98898.25;5075522;28;20062;-76
2021/09/14 09:07:33;;;;;;;0.20;0.20;;;;;;;15.33;39.86;98893.59;5043802;28;20131;-72
2021/09/14 09:10:15;;;;;;;0.30;0.30;;;;;;;14.80;40.80;98906.81;5076976;28;20080;-73
2021/09/14 09:12:45;;;;;;;0.30;0.30;;;;;;;15.05;40.48;98893.59;5043363;28;20056;-72
2021/09/14 09:15:30;;;;;;;0.30;0.30;;;;;;;15.39;40.81;98885.47;5076789;28;20105;-71
2021/09/14 09:18:04;;;;;;;0.30;0.30;;;;;;;15.54;40.56;98888.03;5075972;28;20053;-72
2021/09/14 09:20:30;;;;;;;0.30;0.30;;;;;;;15.61;41.00;98894.38;5059681;28;20079;-72
2021/09/14 09:23:02;;;;;;;0.30;0.30;;;;;;;15.55;41.62;98900.63;5073635;28;20143;-71
2021/09/14 09:25:28;;;;;;;0.20;0.20;;;;;;;15.31;43.02;98904.66;5073893;28;20084;-72
2021/09/14 09:28:06;;;;;;;0.30;0.30;;;;;;;15.16;42.99;98918.38;5056975;28;20060;-75
2021/09/14 09:30:37;;;;;;;0.30;0.30;;;;;;;14.81;42.88;98898.47;5074276;28;20135;-73
2021/09/14 09:33:08;;;;;;;0.40;0.40;;;;;;;15.02;42.73;98900.28;5074270;28;20308;-72
2021/09/14 09:35:39;;;;;;;0.50;0.50;;;;;;;15.03;42.81;98904.69;5073731;28;20385;-77
2021/09/14 09:38:06;;;;;;;0.40;0.40;;;;;;;14.98;42.23;98912.59;5056745;28;20070;-74
2021/09/14 09:40:37;;;;;;;0.30;0.30;;;;;;;14.83;42.21;98914.56;5073629;28;20052;-73
2021/09/14 09:43:07;;;;;;;0.30;0.30;;;;;;;15.04;41.13;98913.69;5056127;28;20056;-73
2021/09/14 09:45:42;;;;;;;0.30;0.30;;;;;;;14.85;41.09;98913.34;5040500;28;20117;-74
2021/09/14 09:48:08;;;;;;;0.40;0.40;;;;;;;14.98;41.15;98915.31;5074156;28;20166;-72
2021/09/14 09:50:34;;;;;;;0.30;0.30;;;;;;;14.87;40.91;98915.88;5073200;28;20545;-74
2021/09/14 09:53:04;;;;;;;0.30;0.30;;;;;;;14.98;41.93;98923.50;5056782;28;20117;-71
2021/09/14 09:55:32;;;;;;;0.40;0.40;;;;;;;15.16;41.72;98923.84;5056767;28;20106;-71
2021/09/14 09:57:59;;;;;;;0.52;0.40;;;;;;;15.53;41.33;98929.09;5057165;28;20055;-70
2021/09/14 10:00:25;;;;;;;0.30;0.30;;;;;;;15.71;41.41;98914.97;5057115;28;20131;-72
2021/09/14 10:03:02;;;;;;;0.30;0.30;;;;;;;15.57;40.65;98919.47;5091504;28;20079;-72
2021/09/14 10:05:31;;;;;;;0.30;0.30;;;;;;;15.48;39.20;98937.88;5073565;28;20124;-72
2021/09/14 10:08:07;;;;;;;0.30;0.30;;;;;;;15.04;39.94;98913.69;5073569;28;20048;-75
2021/09/14 10:10:38;;;;;;;0.30;0.30;;;;;;;14.80;39.38;98926.69;5056712;28;20052;-73
2021/09/14 10:13:06;;;;;;;0.30;0.30;;;;;;;14.89;38.21;98921.97;5072863;28;20063;-72
2021/09/14 10:15:44;;;;;;;0.30;0.30;;;;;;;14.85;38.44;98920.69;5072844;28;20118;-70
2021/09/14 10:18:11;;;;;;;0.30;0.30;;;;;;;15.00;39.04;98924.16;5072555;28;20510;-73
2021/09/14 10:20:39;;;;;;;0.40;0.40;;;;;;;14.94;40.17;98936.66;5039424;28;20426;-72
2021/09/14 10:23:15;;;;;;;0.30;0.30;;;;;;;14.98;39.87;98931.66;5039341;28;20155;-72
2021/09/14 10:25:45;;;;;;;0.40;0.40;;;;;;;15.28;41.05;98926.84;5055853;28;20051;-73
2021/09/14 10:28:15;;;;;;;0.30;0.30;;;;;;;14.26;41.18;98915.47;5056162;28;20164;-73
2021/09/14 10:30:42;;;;;;;0.30;0.30;;;;;;;14.61;40.47;98925.47;5056608;28;20075;-72
2021/09/14 10:33:40;;;;;;;0.40;0.40;;;;;;;14.95;40.18;98921.16;5073093;28;20173;-72
2021/09/14 10:36:14;;;;;;;0.30;0.30;;;;;;;15.13;40.79;98918.78;5012742;28;20063;-71
2021/09/14 10:38:49;;;;;;;0.30;0.30;;;;;;;15.22;40.18;98921.38;5073124;28;20071;-72
2021/09/14 10:41:15;;;;;;;0.30;0.30;;;;;;;14.97;42.10;98916.38;5073318;28;20048;-73
2021/09/14 10:43:42;;;;;;;0.30;0.30;;;;;;;14.90;42.14;98918.19;5034041;28;20520;-72
2021/09/14 10:46:08;;;;;;;0.30;0.30;;;;;;;14.92;42.58;98927.03;5049887;28;20503;-72
2021/09/14 10:48:45;;;;;;;0.40;0.40;;;;;;;14.62;42.05;98921.72;5053361;28;20048;-72
2021/09/14 10:51:16;;;;;;;0.40;0.40;;;;;;;14.64;41.31;98919.66;5069321;28;20531;-72
2021/09/14 10:53:55;;;;;;;0.40;0.40;;;;;;;15.14;40.58;98931.38;5069329;28;20059;-72
2021/09/14 10:56:23;;;;;;;0.43;0.43;;;;;;;15.41;39.99;98934.28;5069452;28;20097;-71
2021/09/14 10:58:49;;;;;;;0.60;0.60;;;;;;;15.38;40.71;98937.38;5052212;28;20048;-72
2021/09/14 11:01:23;;;;;;;0.98;0.98;;;;;;;16.37;39.16;98943.31;5036068;28;20058;-72
2021/09/14 11:03:51;;;;;;;0.70;0.70;;;;;;;16.83;37.38;98933.56;5053830;28;20079;-73
2021/09/14 11:06:17;;;;;;;0.50;0.50;;;;;;;16.84;37.37;98938.81;5069199;28;20057;-74
2021/09/14 11:08:45;;;;;;;0.50;0.50;;;;;;;16.79;38.22;98930.41;5052515;28;20099;-72
2021/09/14 11:11:16;;;;;;;0.30;0.30;;;;;;;16.70;37.44;98930.78;5053304;28;20058;-72
2021/09/14 11:13:42;;;;;;;1.00;1.00;;;;;;;17.87;35.19;98953.81;5073284;28;20056;-74
2021/09/14 11:16:08;;;;;;;0.45;0.45;;;;;;;17.39;34.80;98944.03;5072376;28;20496;-71
2021/09/14 11:18:35;;;;;;;0.43;0.43;;;;;;;16.52;36.58;98940.41;5072151;28;20067;-72
2021/09/14 11:21:08;;;;;;;1.25;1.25;;;;;;;17.79;34.28;98913.88;5039263;28;20090;-72
2021/09/14 11:23:35;;;;;;;1.13;1.13;;;;;;;18.62;32.99;98933.03;5072224;28;20464;-72
2021/09/14 11:26:01;;;;;;;1.00;1.00;;;;;;;20.06;30.35;98925.56;5038685;28;20151;-72
2021/09/14 11:28:27;;;;;;;0.70;0.70;;;;;;;19.70;31.34;98932.75;5072519;28;20123;-72
2021/09/14 11:31:00;;;;;;;0.43;0.43;;;;;;;19.29;31.90;98919.66;5022051;28;20048;-72
2021/09/14 11:33:27;;;;;;;0.93;0.93;;;;;;;20.38;30.63;98933.63;5071924;28;20056;-73
2021/09/14 11:36:01;;;;;;;0.98;0.98;;;;;;;19.77;31.67;98915.38;5055288;28;20546;-72
2021/09/14 11:38:27;;;;;;;;;;;;;;;18.90;32.72;98935.38;5038866;28;20504;-72
2021/09/14 11:41:00;;;;;;;1.00;1.00;;;;;;;19.67;31.23;98904.94;5055035;28;19923;-72
2021/09/14 11:43:33;;;;;;;0.80;0.80;;;;;;;20.04;31.19;98921.38;5071994;28;20056;-73
2021/09/14 11:45:59;;;;;;;0.77;0.77;;;;;;;20.10;30.68;98915.81;5055456;28;20064;-72
2021/09/14 11:48:29;;;;;;;0.50;0.50;;;;;;;19.71;31.26;98911.69;5055750;28;20132;-72
2021/09/14 11:51:21;;;;;;;0.20;0.20;;;;;;;17.14;36.32;98910.22;5055486;28;20125;-72
2021/09/14 11:53:51;;;;;;;0.80;0.80;;;;;;;17.81;34.87;98906.31;5067926;28;20067;-74
2021/09/14 11:56:19;;;;;;;0.80;0.80;;;;;;;18.40;34.40;98916.13;5072432;28;20052;-72
2021/09/14 11:58:47;;;;;;;0.80;0.80;;;;;;;19.40;33.04;98909.84;5059380;28;20119;-73
2021/09/14 12:01:14;;;;;;;0.70;0.70;;;;;;;20.95;30.80;98904.66;5059081;28;20043;-74
2021/09/14 12:03:45;;;;;;;0.80;0.80;;;;;;;20.65;30.66;98912.94;5058621;28;20075;-75
2021/09/14 12:06:20;;;;;;;0.20;0.20;;;;;;;19.36;32.87;98905.91;5075720;28;20052;-72
2021/09/14 12:08:46;;;;;;;0.60;0.60;;;;;;;18.22;34.63;98896.88;5093177;28;20095;-74
2021/09/14 12:11:27;;;;;;;0.70;0.70;;;;;;;19.08;33.25;98898.97;5041311;28;20440;-73
2021/09/14 12:13:59;;;;;;;0.70;0.70;;;;;;;19.17;33.28;98894.06;5058608;28;20483;-72
2021/09/14 12:16:29;;;;;;;0.30;0.30;;;;;;;18.24;33.16;98898.31;5058212;28;20047;-72
2021/09/14 12:18:56;;;;;;;0.63;0.63;;;;;;;17.27;35.31;98893.81;5075975;28;20079;-72
2021/09/14 13:29:08;;;;;;;0.30;0.30;;;;;;;14.49;41.59;98921.56;5072933;28;20185;-71
2021/09/14 13:31:34;;;;;;;0.30;0.30;;;;;;;14.55;40.63;98930.84;5074309;28;20056;-72
2021/09/14 13:34:00;;;;;;;0.20;0.20;;;;;;;14.82;40.40;98915.63;5075744;28;20138;-72
2021/09/14 13:36:26;;;;;;;0.22;0.22;;;;;;;14.53;39.36;98925.63;5041972;28;20059;-72
2021/09/14 16:41:06;;;;;;;0.20;0.20;;;;;;;11.03;55.48;98933.03;5076532;28;20071;-71
2021/09/14 16:43:34;;;;;;;0.30;0.30;;;;;;;11.02;55.63;98934.91;5064776;28;20127;-71
2021/09/14 16:46:04;;;;;;;0.77;0.30;;;;;;;10.99;55.93;98931.69;5076335;28;20055;-71
2021/09/14 16:48:35;;;;;;;0.95;0.20;;;;;;;10.95;55.97;98923.06;5066049;28;20505;-71
2021/09/14 16:51:01;;;;;;;0.20;0.20;;;;;;;10.86;56.19;98919.56;5072422;28;20056;-71